sensor_id;sensor_type;location;lat;lon;timestamp;P1;durP1;ratioP1;P2;durP2;ratioP2
31990;SDS011;18508;49.386;8.370;2023-10-09T00:00:26;20.42;;;7.55;;
31990;SDS011;18508;49.386;8.370;2023-10-09T00:03:17;16.37;;;7.10;;
31990;SDS011;18508;49.386;8.370;2023-10-09T00:05:49;14.43;;;6.45;;
31990;SDS011;18508;49.386;8.370;2023-10-09T00:08:20;16.15;;;7.25;;
31990;SDS011;18508;49.386;8.370;2023-10-09T00:10:53;14.07;;;6.68;;
31990;SDS011;18508;49.386;8.370;2023-10-09T00:13:22;16.00;;;6.65;;
31990;SDS011;18508;49.386;8.370;2023-10-09T00:16:03;17.05;;;7.70;;
31990;SDS011;18508;49.386;8.370;2023-10-09T00:18:42;14.73;;;6.78;;
31990;SDS011;18508;49.386;8.370;2023-10-09T00:21:13;15.57;;;7.25;;
31990;SDS011;18508;49.386;8.370;2023-10-09T00:23:47;17.77;;;6.45;;
31990;SDS011;18508;49.386;8.370;2023-10-09T00:26:21;16.48;;;5.47;;
31990;SDS011;18508;49.386;8.370;2023-10-09T00:28:49;14.52;;;6.45;;
31990;SDS011;18508;49.386;8.370;2023-10-09T00:31:19;16.02;;;7.40;;
31990;SDS011;18508;49.386;8.370;2023-10-09T00:33:56;14.10;;;6.57;;
31990;SDS011;18508;49.386;8.370;2023-10-09T00:36:34;14.73;;;6.80;;
31990;SDS011;18508;49.386;8.370;2023-10-09T00:39:18;12.60;;;5.95;;
31990;SDS011;18508;49.386;8.370;2023-10-09T00:42:06;13.60;;;6.95;;
31990;SDS011;18508;49.386;8.370;2023-10-09T00:44:38;16.00;;;6.90;;
31990;SDS011;18508;49.386;8.370;2023-10-09T00:47:10;18.35;;;6.53;;
31990;SDS011;18508;49.386;8.370;2023-10-09T00:49:49;15.82;;;7.57;;
31990;SDS011;18508;49.386;8.370;2023-10-09T00:52:29;15.13;;;7.00;;
31990;SDS011;18508;49.386;8.370;2023-10-09T00:55:04;16.63;;;6.75;;
31990;SDS011;18508;49.386;8.370;2023-10-09T00:57:41;18.55;;;6.95;;
31990;SDS011;18508;49.386;8.370;2023-10-09T01:00:17;12.85;;;7.05;;
31990;SDS011;18508;49.386;8.370;2023-10-09T01:03:01;16.48;;;7.38;;
31990;SDS011;18508;49.386;8.370;2023-10-09T01:05:47;15.70;;;6.35;;
31990;SDS011;18508;49.386;8.370;2023-10-09T01:08:24;14.73;;;6.28;;
31990;SDS011;18508;49.386;8.370;2023-10-09T01:10:53;14.32;;;6.97;;
31990;SDS011;18508;49.386;8.370;2023-10-09T01:13:23;16.88;;;7.13;;
31990;SDS011;18508;49.386;8.370;2023-10-09T01:16:06;14.10;;;7.15;;
31990;SDS011;18508;49.386;8.370;2023-10-09T01:18:41;17.75;;;7.10;;
31990;SDS011;18508;49.386;8.370;2023-10-09T01:21:09;14.32;;;6.47;;
31990;SDS011;18508;49.386;8.370;2023-10-09T01:23:41;18.48;;;6.75;;
31990;SDS011;18508;49.386;8.370;2023-10-09T01:26:29;12.98;;;6.47;;
31990;SDS011;18508;49.386;8.370;2023-10-09T01:29:00;14.73;;;6.85;;
31990;SDS011;18508;49.386;8.370;2023-10-09T01:31:30;18.15;;;7.00;;
31990;SDS011;18508;49.386;8.370;2023-10-09T01:34:10;16.70;;;6.93;;
31990;SDS011;18508;49.386;8.370;2023-10-09T01:36:40;12.10;;;6.38;;
31990;SDS011;18508;49.386;8.370;2023-10-09T01:39:10;14.95;;;6.13;;
31990;SDS011;18508;49.386;8.370;2023-10-09T01:41:49;14.80;;;6.22;;
31990;SDS011;18508;49.386;8.370;2023-10-09T01:44:24;15.90;;;6.35;;
31990;SDS011;18508;49.386;8.370;2023-10-09T01:46:54;15.13;;;6.70;;
31990;SDS011;18508;49.386;8.370;2023-10-09T01:49:24;12.77;;;6.10;;
31990;SDS011;18508;49.386;8.370;2023-10-09T01:52:03;15.18;;;6.18;;
31990;SDS011;18508;49.386;8.370;2023-10-09T01:54:37;13.65;;;6.32;;
31990;SDS011;18508;49.386;8.370;2023-10-09T01:57:07;16.05;;;7.03;;
31990;SDS011;18508;49.386;8.370;2023-10-09T01:59:39;17.03;;;6.60;;
31990;SDS011;18508;49.386;8.370;2023-10-09T02:02:13;19.73;;;6.60;;
31990;SDS011;18508;49.386;8.370;2023-10-09T02:04:53;19.20;;;6.57;;
31990;SDS011;18508;49.386;8.370;2023-10-09T02:07:34;14.38;;;5.90;;
31990;SDS011;18508;49.386;8.370;2023-10-09T02:10:09;15.63;;;5.72;;
31990;SDS011;18508;49.386;8.370;2023-10-09T02:12:52;11.68;;;6.25;;
31990;SDS011;18508;49.386;8.370;2023-10-09T02:15:25;17.38;;;6.60;;
31990;SDS011;18508;49.386;8.370;2023-10-09T02:18:13;17.80;;;6.40;;
31990;SDS011;18508;49.386;8.370;2023-10-09T02:20:52;12.85;;;6.28;;
31990;SDS011;18508;49.386;8.370;2023-10-09T02:23:39;15.75;;;6.70;;
31990;SDS011;18508;49.386;8.370;2023-10-09T02:26:13;13.00;;;6.50;;
31990;SDS011;18508;49.386;8.370;2023-10-09T02:28:51;13.68;;;5.82;;
31990;SDS011;18508;49.386;8.370;2023-10-09T02:31:27;14.27;;;5.80;;
31990;SDS011;18508;49.386;8.370;2023-10-09T02:34:07;13.43;;;5.47;;
31990;SDS011;18508;49.386;8.370;2023-10-09T02:36:38;15.23;;;6.22;;
31990;SDS011;18508;49.386;8.370;2023-10-09T02:39:16;14.48;;;5.72;;
31990;SDS011;18508;49.386;8.370;2023-10-09T02:41:51;14.05;;;5.72;;
31990;SDS011;18508;49.386;8.370;2023-10-09T02:44:25;11.40;;;5.60;;
31990;SDS011;18508;49.386;8.370;2023-10-09T02:46:57;13.35;;;5.95;;
31990;SDS011;18508;49.386;8.370;2023-10-09T02:49:25;15.93;;;6.00;;
31990;SDS011;18508;49.386;8.370;2023-10-09T02:51:55;12.82;;;6.50;;
31990;SDS011;18508;49.386;8.370;2023-10-09T02:54:23;14.75;;;5.80;;
31990;SDS011;18508;49.386;8.370;2023-10-09T02:57:03;17.13;;;5.97;;
31990;SDS011;18508;49.386;8.370;2023-10-09T02:59:34;15.52;;;5.90;;
31990;SDS011;18508;49.386;8.370;2023-10-09T03:02:05;15.30;;;5.97;;
31990;SDS011;18508;49.386;8.370;2023-10-09T03:04:33;13.88;;;5.72;;
31990;SDS011;18508;49.386;8.370;2023-10-09T03:07:02;23.63;;;7.35;;
31990;SDS011;18508;49.386;8.370;2023-10-09T03:09:40;15.55;;;5.55;;
31990;SDS011;18508;49.386;8.370;2023-10-09T03:12:09;9.95;;;5.07;;
31990;SDS011;18508;49.386;8.370;2023-10-09T03:14:40;16.52;;;6.38;;
31990;SDS011;18508;49.386;8.370;2023-10-09T03:17:09;15.80;;;6.13;;
31990;SDS011;18508;49.386;8.370;2023-10-09T03:19:39;12.25;;;6.05;;
31990;SDS011;18508;49.386;8.370;2023-10-09T03:22:10;15.32;;;6.38;;
31990;SDS011;18508;49.386;8.370;2023-10-09T03:24:39;18.77;;;6.35;;
31990;SDS011;18508;49.386;8.370;2023-10-09T03:27:17;13.98;;;6.22;;
31990;SDS011;18508;49.386;8.370;2023-10-09T03:29:46;22.02;;;6.93;;
31990;SDS011;18508;49.386;8.370;2023-10-09T03:32:20;13.70;;;5.72;;
31990;SDS011;18508;49.386;8.370;2023-10-09T03:34:48;15.40;;;6.15;;
31990;SDS011;18508;49.386;8.370;2023-10-09T03:37:19;15.45;;;7.75;;
31990;SDS011;18508;49.386;8.370;2023-10-09T03:40:01;14.82;;;6.85;;
31990;SDS011;18508;49.386;8.370;2023-10-09T03:42:32;19.27;;;6.38;;
31990;SDS011;18508;49.386;8.370;2023-10-09T03:45:03;16.88;;;7.30;;
31990;SDS011;18508;49.386;8.370;2023-10-09T03:47:39;19.83;;;9.35;;
31990;SDS011;18508;49.386;8.370;2023-10-09T03:50:09;22.60;;;8.48;;
31990;SDS011;18508;49.386;8.370;2023-10-09T03:52:50;18.90;;;8.40;;
31990;SDS011;18508;49.386;8.370;2023-10-09T03:55:21;17.83;;;7.43;;
31990;SDS011;18508;49.386;8.370;2023-10-09T03:57:56;16.73;;;7.32;;
31990;SDS011;18508;49.386;8.370;2023-10-09T04:00:27;18.20;;;7.55;;
31990;SDS011;18508;49.386;8.370;2023-10-09T04:02:58;18.20;;;7.00;;
31990;SDS011;18508;49.386;8.370;2023-10-09T04:05:26;15.73;;;6.55;;
31990;SDS011;18508;49.386;8.370;2023-10-09T04:07:55;13.80;;;6.65;;
31990;SDS011;18508;49.386;8.370;2023-10-09T04:10:25;16.88;;;6.80;;
31990;SDS011;18508;49.386;8.370;2023-10-09T04:13:21;15.40;;;7.40;;
31990;SDS011;18508;49.386;8.370;2023-10-09T04:18:21;22.90;;;14.25;;
31990;SDS011;18508;49.386;8.370;2023-10-09T04:20:59;17.67;;;7.57;;
31990;SDS011;18508;49.386;8.370;2023-10-09T04:23:46;17.63;;;7.00;;
31990;SDS011;18508;49.386;8.370;2023-10-09T04:26:36;16.35;;;6.57;;
31990;SDS011;18508;49.386;8.370;2023-10-09T04:29:08;19.90;;;7.10;;
31990;SDS011;18508;49.386;8.370;2023-10-09T04:31:37;16.95;;;7.60;;
31990;SDS011;18508;49.386;8.370;2023-10-09T04:34:05;17.85;;;6.50;;
31990;SDS011;18508;49.386;8.370;2023-10-09T04:36:50;15.85;;;6.45;;
31990;SDS011;18508;49.386;8.370;2023-10-09T04:39:24;19.45;;;6.15;;
31990;SDS011;18508;49.386;8.370;2023-10-09T04:42:13;19.20;;;7.03;;
31990;SDS011;18508;49.386;8.370;2023-10-09T04:45:14;19.05;;;6.45;;
31990;SDS011;18508;49.386;8.370;2023-10-09T04:47:52;18.17;;;6.13;;
31990;SDS011;18508;49.386;8.370;2023-10-09T04:50:33;17.25;;;5.60;;
31990;SDS011;18508;49.386;8.370;2023-10-09T04:53:12;13.27;;;5.70;;
31990;SDS011;18508;49.386;8.370;2023-10-09T04:55:49;18.08;;;6.60;;
31990;SDS011;18508;49.386;8.370;2023-10-09T04:58:24;16.25;;;6.55;;
31990;SDS011;18508;49.386;8.370;2023-10-09T05:00:55;15.75;;;8.52;;
31990;SDS011;18508;49.386;8.370;2023-10-09T05:03:40;14.23;;;6.72;;
31990;SDS011;18508;49.386;8.370;2023-10-09T05:06:11;15.00;;;6.78;;
31990;SDS011;18508;49.386;8.370;2023-10-09T05:09:09;14.15;;;6.30;;
31990;SDS011;18508;49.386;8.370;2023-10-09T05:11:42;16.85;;;6.53;;
31990;SDS011;18508;49.386;8.370;2023-10-09T05:14:42;12.20;;;6.00;;
31990;SDS011;18508;49.386;8.370;2023-10-09T05:17:34;11.77;;;6.07;;
31990;SDS011;18508;49.386;8.370;2023-10-09T05:20:06;14.02;;;6.78;;
31990;SDS011;18508;49.386;8.370;2023-10-09T05:22:52;17.85;;;7.78;;
31990;SDS011;18508;49.386;8.370;2023-10-09T05:25:46;16.83;;;7.57;;
31990;SDS011;18508;49.386;8.370;2023-10-09T05:28:22;15.75;;;7.22;;
31990;SDS011;18508;49.386;8.370;2023-10-09T05:30:52;23.40;;;7.20;;
31990;SDS011;18508;49.386;8.370;2023-10-09T05:33:34;25.13;;;7.10;;
31990;SDS011;18508;49.386;8.370;2023-10-09T05:36:04;15.30;;;6.72;;
31990;SDS011;18508;49.386;8.370;2023-10-09T05:38:58;14.80;;;6.90;;
31990;SDS011;18508;49.386;8.370;2023-10-09T05:41:44;18.35;;;6.55;;
31990;SDS011;18508;49.386;8.370;2023-10-09T05:44:19;15.23;;;6.25;;
31990;SDS011;18508;49.386;8.370;2023-10-09T05:47:11;18.85;;;6.30;;
31990;SDS011;18508;49.386;8.370;2023-10-09T05:50:00;16.58;;;6.57;;
31990;SDS011;18508;49.386;8.370;2023-10-09T05:52:46;14.77;;;7.28;;
31990;SDS011;18508;49.386;8.370;2023-10-09T05:55:36;16.48;;;6.57;;
31990;SDS011;18508;49.386;8.370;2023-10-09T05:58:30;16.15;;;6.30;;
31990;SDS011;18508;49.386;8.370;2023-10-09T06:01:17;14.73;;;6.20;;
31990;SDS011;18508;49.386;8.370;2023-10-09T06:04:03;14.27;;;6.55;;
31990;SDS011;18508;49.386;8.370;2023-10-09T06:06:44;19.52;;;7.60;;
31990;SDS011;18508;49.386;8.370;2023-10-09T06:09:23;18.90;;;7.22;;
31990;SDS011;18508;49.386;8.370;2023-10-09T06:12:16;16.88;;;6.43;;
31990;SDS011;18508;49.386;8.370;2023-10-09T06:15:00;18.08;;;7.70;;
31990;SDS011;18508;49.386;8.370;2023-10-09T06:17:43;14.60;;;6.40;;
31990;SDS011;18508;49.386;8.370;2023-10-09T06:20:17;15.48;;;6.68;;
31990;SDS011;18508;49.386;8.370;2023-10-09T06:23:27;18.25;;;6.63;;
31990;SDS011;18508;49.386;8.370;2023-10-09T06:26:10;14.80;;;5.65;;
31990;SDS011;18508;49.386;8.370;2023-10-09T06:28:51;21.88;;;6.45;;
31990;SDS011;18508;49.386;8.370;2023-10-09T06:31:42;14.18;;;6.03;;
31990;SDS011;18508;49.386;8.370;2023-10-09T06:34:47;14.05;;;5.72;;
31990;SDS011;18508;49.386;8.370;2023-10-09T06:37:20;16.45;;;5.72;;
31990;SDS011;18508;49.386;8.370;2023-10-09T06:40:07;15.07;;;5.28;;
31990;SDS011;18508;49.386;8.370;2023-10-09T06:42:54;18.33;;;6.07;;
31990;SDS011;18508;49.386;8.370;2023-10-09T06:45:24;17.02;;;6.53;;
31990;SDS011;18508;49.386;8.370;2023-10-09T06:48:10;16.13;;;5.30;;
31990;SDS011;18508;49.386;8.370;2023-10-09T06:50:53;11.75;;;5.63;;
31990;SDS011;18508;49.386;8.370;2023-10-09T06:53:30;18.27;;;5.07;;
31990;SDS011;18508;49.386;8.370;2023-10-09T06:56:17;19.13;;;4.93;;
31990;SDS011;18508;49.386;8.370;2023-10-09T06:58:52;13.80;;;4.28;;
31990;SDS011;18508;49.386;8.370;2023-10-09T07:01:23;19.17;;;5.53;;
31990;SDS011;18508;49.386;8.370;2023-10-09T07:04:06;15.73;;;5.18;;
31990;SDS011;18508;49.386;8.370;2023-10-09T07:06:47;14.07;;;4.93;;
31990;SDS011;18508;49.386;8.370;2023-10-09T07:09:17;12.52;;;4.80;;
31990;SDS011;18508;49.386;8.370;2023-10-09T07:11:49;17.00;;;4.60;;
31990;SDS011;18508;49.386;8.370;2023-10-09T07:14:25;12.07;;;5.15;;
31990;SDS011;18508;49.386;8.370;2023-10-09T07:17:19;16.95;;;4.03;;
31990;SDS011;18508;49.386;8.370;2023-10-09T07:20:10;13.90;;;3.95;;
31990;SDS011;18508;49.386;8.370;2023-10-09T07:25:48;13.63;;;4.63;;
31990;SDS011;18508;49.386;8.370;2023-10-09T07:28:28;14.00;;;4.68;;
31990;SDS011;18508;49.386;8.370;2023-10-09T07:31:03;16.63;;;4.90;;
31990;SDS011;18508;49.386;8.370;2023-10-09T07:33:37;12.20;;;4.57;;
31990;SDS011;18508;49.386;8.370;2023-10-09T07:36:20;13.57;;;4.63;;
31990;SDS011;18508;49.386;8.370;2023-10-09T07:39:01;16.73;;;5.15;;
31990;SDS011;18508;49.386;8.370;2023-10-09T07:41:40;18.23;;;4.30;;
31990;SDS011;18508;49.386;8.370;2023-10-09T07:47:03;12.63;;;3.63;;
31990;SDS011;18508;49.386;8.370;2023-10-09T07:49:45;14.65;;;4.65;;
31990;SDS011;18508;49.386;8.370;2023-10-09T07:52:22;15.15;;;4.43;;
31990;SDS011;18508;49.386;8.370;2023-10-09T07:54:52;12.23;;;4.50;;
31990;SDS011;18508;49.386;8.370;2023-10-09T07:57:29;14.60;;;4.38;;
31990;SDS011;18508;49.386;8.370;2023-10-09T08:00:08;14.35;;;4.25;;
31990;SDS011;18508;49.386;8.370;2023-10-09T08:03:00;14.85;;;4.63;;
31990;SDS011;18508;49.386;8.370;2023-10-09T08:05:29;12.70;;;3.97;;
31990;SDS011;18508;49.386;8.370;2023-10-09T08:08:01;11.32;;;4.43;;
31990;SDS011;18508;49.386;8.370;2023-10-09T08:11:09;13.07;;;4.35;;
31990;SDS011;18508;49.386;8.370;2023-10-09T08:14:21;14.18;;;4.07;;
31990;SDS011;18508;49.386;8.370;2023-10-09T08:17:13;20.70;;;4.90;;
31990;SDS011;18508;49.386;8.370;2023-10-09T08:19:48;12.20;;;4.30;;
31990;SDS011;18508;49.386;8.370;2023-10-09T08:22:25;17.10;;;4.50;;
31990;SDS011;18508;49.386;8.370;2023-10-09T08:25:19;15.55;;;4.63;;
31990;SDS011;18508;49.386;8.370;2023-10-09T08:28:00;14.13;;;4.22;;
31990;SDS011;18508;49.386;8.370;2023-10-09T08:30:52;17.20;;;4.55;;
31990;SDS011;18508;49.386;8.370;2023-10-09T08:33:31;13.70;;;4.43;;
31990;SDS011;18508;49.386;8.370;2023-10-09T08:36:11;11.55;;;4.47;;
31990;SDS011;18508;49.386;8.370;2023-10-09T08:38:47;17.67;;;3.78;;
31990;SDS011;18508;49.386;8.370;2023-10-09T08:41:18;15.15;;;4.25;;
31990;SDS011;18508;49.386;8.370;2023-10-09T08:43:57;18.52;;;4.90;;
31990;SDS011;18508;49.386;8.370;2023-10-09T08:46:26;17.50;;;3.97;;
31990;SDS011;18508;49.386;8.370;2023-10-09T08:48:56;12.00;;;4.15;;
31990;SDS011;18508;49.386;8.370;2023-10-09T08:51:29;16.50;;;4.45;;
31990;SDS011;18508;49.386;8.370;2023-10-09T08:54:00;21.33;;;4.00;;
31990;SDS011;18508;49.386;8.370;2023-10-09T08:56:29;15.75;;;4.28;;
31990;SDS011;18508;49.386;8.370;2023-10-09T08:58:58;13.90;;;4.20;;
31990;SDS011;18508;49.386;8.370;2023-10-09T09:01:28;16.65;;;4.40;;
31990;SDS011;18508;49.386;8.370;2023-10-09T09:04:00;14.63;;;4.00;;
31990;SDS011;18508;49.386;8.370;2023-10-09T09:06:36;18.45;;;4.68;;
31990;SDS011;18508;49.386;8.370;2023-10-09T09:09:10;18.33;;;3.90;;
31990;SDS011;18508;49.386;8.370;2023-10-09T09:11:42;11.82;;;4.03;;
31990;SDS011;18508;49.386;8.370;2023-10-09T09:14:16;14.75;;;3.88;;
31990;SDS011;18508;49.386;8.370;2023-10-09T09:16:48;10.63;;;3.65;;
31990;SDS011;18508;49.386;8.370;2023-10-09T09:19:20;12.43;;;4.30;;
31990;SDS011;18508;49.386;8.370;2023-10-09T09:22:05;12.07;;;4.25;;
31990;SDS011;18508;49.386;8.370;2023-10-09T09:24:56;12.50;;;3.55;;
31990;SDS011;18508;49.386;8.370;2023-10-09T09:27:45;13.52;;;3.80;;
31990;SDS011;18508;49.386;8.370;2023-10-09T09:30:22;8.85;;;3.72;;
31990;SDS011;18508;49.386;8.370;2023-10-09T09:35:35;13.45;;;4.22;;
31990;SDS011;18508;49.386;8.370;2023-10-09T09:38:04;14.50;;;3.58;;
31990;SDS011;18508;49.386;8.370;2023-10-09T09:40:34;9.68;;;3.90;;
31990;SDS011;18508;49.386;8.370;2023-10-09T09:43:08;12.57;;;4.05;;
31990;SDS011;18508;49.386;8.370;2023-10-09T09:45:48;11.20;;;3.25;;
31990;SDS011;18508;49.386;8.370;2023-10-09T09:48:17;12.27;;;3.70;;
31990;SDS011;18508;49.386;8.370;2023-10-09T09:50:52;15.45;;;3.97;;
31990;SDS011;18508;49.386;8.370;2023-10-09T09:53:20;11.82;;;3.50;;
31990;SDS011;18508;49.386;8.370;2023-10-09T09:55:50;14.10;;;3.58;;
31990;SDS011;18508;49.386;8.370;2023-10-09T09:58:26;12.43;;;4.30;;
31990;SDS011;18508;49.386;8.370;2023-10-09T10:01:00;9.27;;;3.40;;
31990;SDS011;18508;49.386;8.370;2023-10-09T10:03:42;12.48;;;4.05;;
31990;SDS011;18508;49.386;8.370;2023-10-09T10:06:24;13.93;;;3.97;;
31990;SDS011;18508;49.386;8.370;2023-10-09T10:09:12;14.43;;;3.90;;
31990;SDS011;18508;49.386;8.370;2023-10-09T10:12:06;12.55;;;3.50;;
31990;SDS011;18508;49.386;8.370;2023-10-09T10:14:54;11.75;;;3.78;;
31990;SDS011;18508;49.386;8.370;2023-10-09T10:17:26;14.35;;;4.50;;
31990;SDS011;18508;49.386;8.370;2023-10-09T10:20:00;13.73;;;4.50;;
31990;SDS011;18508;49.386;8.370;2023-10-09T10:22:50;14.18;;;4.30;;
31990;SDS011;18508;49.386;8.370;2023-10-09T10:28:17;14.13;;;3.75;;
31990;SDS011;18508;49.386;8.370;2023-10-09T10:31:03;14.43;;;4.90;;
31990;SDS011;18508;49.386;8.370;2023-10-09T10:36:42;16.98;;;4.70;;
31990;SDS011;18508;49.386;8.370;2023-10-09T10:39:20;17.85;;;5.00;;
31990;SDS011;18508;49.386;8.370;2023-10-09T10:42:02;13.07;;;5.10;;
31990;SDS011;18508;49.386;8.370;2023-10-09T10:44:35;14.10;;;4.68;;
31990;SDS011;18508;49.386;8.370;2023-10-09T10:47:08;10.35;;;3.63;;
31990;SDS011;18508;49.386;8.370;2023-10-09T10:49:53;11.60;;;4.18;;
31990;SDS011;18508;49.386;8.370;2023-10-09T10:52:26;11.90;;;4.40;;
31990;SDS011;18508;49.386;8.370;2023-10-09T10:55:11;13.98;;;4.18;;
31990;SDS011;18508;49.386;8.370;2023-10-09T10:58:15;13.85;;;3.78;;
31990;SDS011;18508;49.386;8.370;2023-10-09T11:00:53;15.90;;;4.25;;
31990;SDS011;18508;49.386;8.370;2023-10-09T11:03:41;15.43;;;4.85;;
31990;SDS011;18508;49.386;8.370;2023-10-09T11:06:26;15.00;;;4.63;;
31990;SDS011;18508;49.386;8.370;2023-10-09T11:09:05;12.00;;;4.03;;
31990;SDS011;18508;49.386;8.370;2023-10-09T11:11:50;17.95;;;4.38;;
31990;SDS011;18508;49.386;8.370;2023-10-09T11:14:22;12.07;;;3.65;;
31990;SDS011;18508;49.386;8.370;2023-10-09T11:16:50;12.18;;;3.85;;
31990;SDS011;18508;49.386;8.370;2023-10-09T11:19:25;11.60;;;4.03;;
31990;SDS011;18508;49.386;8.370;2023-10-09T11:22:00;15.00;;;3.95;;
31990;SDS011;18508;49.386;8.370;2023-10-09T11:24:48;11.50;;;3.97;;
31990;SDS011;18508;49.386;8.370;2023-10-09T11:27:44;13.43;;;3.83;;
31990;SDS011;18508;49.386;8.370;2023-10-09T11:30:30;10.05;;;4.20;;
31990;SDS011;18508;49.386;8.370;2023-10-09T11:33:05;9.50;;;3.80;;
31990;SDS011;18508;49.386;8.370;2023-10-09T11:35:41;13.85;;;3.72;;
31990;SDS011;18508;49.386;8.370;2023-10-09T11:38:23;11.70;;;3.92;;
31990;SDS011;18508;49.386;8.370;2023-10-09T11:40:53;12.00;;;4.05;;
31990;SDS011;18508;49.386;8.370;2023-10-09T11:43:46;12.52;;;4.35;;
31990;SDS011;18508;49.386;8.370;2023-10-09T11:46:24;14.60;;;4.32;;
31990;SDS011;18508;49.386;8.370;2023-10-09T11:49:15;13.02;;;4.13;;
31990;SDS011;18508;49.386;8.370;2023-10-09T11:52:06;9.68;;;3.67;;
31990;SDS011;18508;49.386;8.370;2023-10-09T11:54:53;8.63;;;3.92;;
31990;SDS011;18508;49.386;8.370;2023-10-09T11:57:24;13.48;;;3.85;;
31990;SDS011;18508;49.386;8.370;2023-10-09T11:59:59;12.35;;;3.60;;
31990;SDS011;18508;49.386;8.370;2023-10-09T12:02:36;8.88;;;3.33;;
31990;SDS011;18508;49.386;8.370;2023-10-09T12:05:10;15.10;;;3.85;;
31990;SDS011;18508;49.386;8.370;2023-10-09T12:10:12;10.55;;;4.22;;
31990;SDS011;18508;49.386;8.370;2023-10-09T12:12:52;14.35;;;4.68;;
31990;SDS011;18508;49.386;8.370;2023-10-09T12:15:22;10.82;;;4.20;;
31990;SDS011;18508;49.386;8.370;2023-10-09T12:17:51;11.52;;;3.65;;
31990;SDS011;18508;49.386;8.370;2023-10-09T12:20:22;11.43;;;4.85;;
31990;SDS011;18508;49.386;8.370;2023-10-09T12:22:57;14.23;;;5.03;;
31990;SDS011;18508;49.386;8.370;2023-10-09T12:25:26;8.82;;;3.45;;
31990;SDS011;18508;49.386;8.370;2023-10-09T12:27:58;12.80;;;4.35;;
31990;SDS011;18508;49.386;8.370;2023-10-09T12:30:29;11.43;;;3.75;;
31990;SDS011;18508;49.386;8.370;2023-10-09T12:33:06;12.68;;;4.25;;
31990;SDS011;18508;49.386;8.370;2023-10-09T12:35:36;10.40;;;3.92;;
31990;SDS011;18508;49.386;8.370;2023-10-09T12:38:07;12.05;;;3.85;;
31990;SDS011;18508;49.386;8.370;2023-10-09T12:40:38;10.40;;;4.07;;
31990;SDS011;18508;49.386;8.370;2023-10-09T12:43:08;8.93;;;3.72;;
31990;SDS011;18508;49.386;8.370;2023-10-09T12:45:43;11.38;;;4.03;;
31990;SDS011;18508;49.386;8.370;2023-10-09T12:48:11;10.00;;;4.55;;
31990;SDS011;18508;49.386;8.370;2023-10-09T12:50:41;11.50;;;4.38;;
31990;SDS011;18508;49.386;8.370;2023-10-09T12:53:11;14.82;;;4.30;;
31990;SDS011;18508;49.386;8.370;2023-10-09T12:55:44;13.02;;;4.57;;
31990;SDS011;18508;49.386;8.370;2023-10-09T12:58:14;14.10;;;3.97;;
31990;SDS011;18508;49.386;8.370;2023-10-09T13:00:46;8.52;;;4.00;;
31990;SDS011;18508;49.386;8.370;2023-10-09T13:03:17;8.02;;;3.88;;
31990;SDS011;18508;49.386;8.370;2023-10-09T13:05:48;9.17;;;3.60;;
31990;SDS011;18508;49.386;8.370;2023-10-09T13:08:22;8.82;;;4.22;;
31990;SDS011;18508;49.386;8.370;2023-10-09T13:11:01;10.82;;;3.33;;
31990;SDS011;18508;49.386;8.370;2023-10-09T13:13:38;11.73;;;3.70;;
31990;SDS011;18508;49.386;8.370;2023-10-09T13:16:11;11.73;;;4.35;;
31990;SDS011;18508;49.386;8.370;2023-10-09T13:18:49;14.25;;;3.78;;
31990;SDS011;18508;49.386;8.370;2023-10-09T13:21:18;11.32;;;4.18;;
31990;SDS011;18508;49.386;8.370;2023-10-09T13:23:50;9.10;;;3.90;;
31990;SDS011;18508;49.386;8.370;2023-10-09T13:26:21;10.38;;;3.75;;
31990;SDS011;18508;49.386;8.370;2023-10-09T13:29:00;9.88;;;4.38;;
31990;SDS011;18508;49.386;8.370;2023-10-09T13:31:31;14.48;;;4.30;;
31990;SDS011;18508;49.386;8.370;2023-10-09T13:34:01;9.15;;;3.70;;
31990;SDS011;18508;49.386;8.370;2023-10-09T13:36:32;13.65;;;3.80;;
31990;SDS011;18508;49.386;8.370;2023-10-09T13:39:02;9.65;;;3.67;;
31990;SDS011;18508;49.386;8.370;2023-10-09T13:41:45;9.32;;;4.35;;
31990;SDS011;18508;49.386;8.370;2023-10-09T13:44:25;11.00;;;3.85;;
31990;SDS011;18508;49.386;8.370;2023-10-09T13:46:57;7.07;;;3.42;;
31990;SDS011;18508;49.386;8.370;2023-10-09T13:49:27;11.10;;;3.77;;
31990;SDS011;18508;49.386;8.370;2023-10-09T13:51:58;10.05;;;4.00;;
31990;SDS011;18508;49.386;8.370;2023-10-09T13:54:28;15.98;;;4.32;;
31990;SDS011;18508;49.386;8.370;2023-10-09T13:57:09;11.93;;;4.30;;
31990;SDS011;18508;49.386;8.370;2023-10-09T13:59:38;11.45;;;4.35;;
31990;SDS011;18508;49.386;8.370;2023-10-09T14:02:18;10.63;;;4.53;;
31990;SDS011;18508;49.386;8.370;2023-10-09T14:04:48;10.75;;;4.18;;
31990;SDS011;18508;49.386;8.370;2023-10-09T14:07:17;11.02;;;4.18;;
31990;SDS011;18508;49.386;8.370;2023-10-09T14:09:47;8.80;;;4.10;;
31990;SDS011;18508;49.386;8.370;2023-10-09T14:12:34;13.65;;;4.07;;
31990;SDS011;18508;49.386;8.370;2023-10-09T14:15:07;15.90;;;4.05;;
31990;SDS011;18508;49.386;8.370;2023-10-09T14:17:45;12.85;;;3.92;;
31990;SDS011;18508;49.386;8.370;2023-10-09T14:20:22;14.90;;;4.18;;
31990;SDS011;18508;49.386;8.370;2023-10-09T14:22:59;13.77;;;4.65;;
31990;SDS011;18508;49.386;8.370;2023-10-09T14:25:33;10.52;;;3.90;;
31990;SDS011;18508;49.386;8.370;2023-10-09T14:28:04;8.95;;;4.10;;
31990;SDS011;18508;49.386;8.370;2023-10-09T14:30:36;11.05;;;3.90;;
31990;SDS011;18508;49.386;8.370;2023-10-09T14:33:11;10.77;;;4.32;;
31990;SDS011;18508;49.386;8.370;2023-10-09T14:35:41;9.23;;;4.15;;
31990;SDS011;18508;49.386;8.370;2023-10-09T14:38:12;11.52;;;4.25;;
31990;SDS011;18508;49.386;8.370;2023-10-09T14:40:41;10.13;;;4.15;;
31990;SDS011;18508;49.386;8.370;2023-10-09T14:43:11;10.68;;;4.28;;
31990;SDS011;18508;49.386;8.370;2023-10-09T14:45:46;10.80;;;4.60;;
31990;SDS011;18508;49.386;8.370;2023-10-09T14:48:17;9.93;;;3.80;;
31990;SDS011;18508;49.386;8.370;2023-10-09T14:50:47;10.77;;;4.18;;
31990;SDS011;18508;49.386;8.370;2023-10-09T14:53:20;10.82;;;4.65;;
31990;SDS011;18508;49.386;8.370;2023-10-09T14:55:56;12.13;;;4.50;;
31990;SDS011;18508;49.386;8.370;2023-10-09T15:00:57;12.82;;;5.25;;
31990;SDS011;18508;49.386;8.370;2023-10-09T15:03:38;12.73;;;4.50;;
31990;SDS011;18508;49.386;8.370;2023-10-09T15:06:07;11.98;;;4.63;;
31990;SDS011;18508;49.386;8.370;2023-10-09T15:08:38;11.32;;;4.45;;
31990;SDS011;18508;49.386;8.370;2023-10-09T15:11:07;12.02;;;4.63;;
31990;SDS011;18508;49.386;8.370;2023-10-09T15:13:36;10.02;;;4.53;;
31990;SDS011;18508;49.386;8.370;2023-10-09T15:16:07;11.73;;;4.47;;
31990;SDS011;18508;49.386;8.370;2023-10-09T15:18:39;13.18;;;5.20;;
31990;SDS011;18508;49.386;8.370;2023-10-09T15:21:07;8.23;;;3.78;;
31990;SDS011;18508;49.386;8.370;2023-10-09T15:23:37;11.70;;;3.97;;
31990;SDS011;18508;49.386;8.370;2023-10-09T15:26:05;9.57;;;4.80;;
31990;SDS011;18508;49.386;8.370;2023-10-09T15:28:35;10.35;;;4.68;;
31990;SDS011;18508;49.386;8.370;2023-10-09T15:31:07;12.93;;;5.15;;
31990;SDS011;18508;49.386;8.370;2023-10-09T15:33:39;8.15;;;3.90;;
31990;SDS011;18508;49.386;8.370;2023-10-09T15:36:11;8.70;;;4.25;;
31990;SDS011;18508;49.386;8.370;2023-10-09T15:38:41;9.85;;;4.15;;
31990;SDS011;18508;49.386;8.370;2023-10-09T15:41:09;11.77;;;4.75;;
31990;SDS011;18508;49.386;8.370;2023-10-09T15:43:38;11.80;;;4.78;;
31990;SDS011;18508;49.386;8.370;2023-10-09T15:46:10;12.38;;;4.30;;
31990;SDS011;18508;49.386;8.370;2023-10-09T15:48:42;10.30;;;4.93;;
31990;SDS011;18508;49.386;8.370;2023-10-09T15:51:12;12.23;;;4.32;;
31990;SDS011;18508;49.386;8.370;2023-10-09T15:53:42;11.07;;;4.82;;